createdAt,value
2022-09-11T00:13:37.529Z,98822.84
2022-09-11T00:28:23.607Z,98803.22
2022-09-11T00:37:59.367Z,98800.03
2022-09-11T01:00:51.350Z,98825.78
2022-09-11T01:03:23.015Z,98792.69
2022-09-11T01:08:50.099Z,98830.13
2022-09-11T01:12:01.545Z,98832.72
2022-09-11T01:15:20.548Z,98814.44
2022-09-11T01:18:42.056Z,98826.09
2022-09-11T01:21:43.048Z,98831.38
2022-09-11T01:24:44.440Z,98800.78
2022-09-11T01:27:39.053Z,98802.44
2022-09-11T01:30:13.578Z,98794.72
2022-09-11T01:33:02.424Z,98832.09
2022-09-11T01:35:38.267Z,98834.75
2022-09-11T01:38:40.457Z,98816.97
2022-09-11T01:41:22.201Z,98800.88
2022-09-11T01:44:20.135Z,98807.72
2022-09-11T01:46:54.164Z,98810.13
2022-09-11T01:49:56.411Z,98823.50
2022-09-11T01:53:05.080Z,98788.91
2022-09-11T01:58:50.139Z,98805.97
2022-09-11T02:01:29.616Z,98791.25
2022-09-11T02:04:07.716Z,98808.16
2022-09-11T02:06:49.923Z,98819.19
2022-09-11T02:09:20.494Z,98803.94
2022-09-11T02:11:54.128Z,98798.06
2022-09-11T02:14:41.864Z,98811.72
2022-09-11T02:24:21.490Z,98798.41
2022-09-11T02:27:14.157Z,98825.22
2022-09-11T02:36:38.640Z,98809.75
2022-09-11T02:44:09.635Z,98814.22
2022-09-11T02:50:53.646Z,98806.47
2022-09-11T02:57:06.393Z,98780.25
2022-09-11T02:59:51.653Z,98775.03
2022-09-11T03:02:50.020Z,98795.34
2022-09-11T03:17:11.847Z,98805.72
2022-09-11T03:19:43.066Z,98774.25
2022-09-11T03:22:24.651Z,98778.44
2022-09-11T03:25:11.376Z,98798.06
2022-09-11T03:27:51.197Z,98782.91
2022-09-11T03:30:22.923Z,98782.00
2022-09-11T03:42:47.352Z,98811.72
2022-09-11T03:45:29.949Z,98788.81
2022-09-11T03:52:38.380Z,98818.66
2022-09-11T03:55:24.885Z,98820.47
2022-09-11T04:04:27.094Z,98828.16
2022-09-11T04:14:06.938Z,98798.53
2022-09-11T04:17:05.389Z,98807.06
2022-09-11T04:19:56.119Z,98824.88
2022-09-11T04:22:36.366Z,98784.94
2022-09-11T04:25:09.876Z,98792.38
2022-09-11T04:31:12.812Z,98824.78
2022-09-11T04:33:57.674Z,98791.75
2022-09-11T04:36:44.959Z,98802.72
2022-09-11T04:42:15.980Z,98795.88
2022-09-11T04:45:32.025Z,98797.50
2022-09-11T04:48:40.350Z,98823.91
2022-09-11T04:51:58.821Z,98794.97
2022-09-11T04:54:36.193Z,98799.22
2022-09-11T04:57:23.066Z,98808.69
2022-09-11T04:59:57.623Z,98836.56
2022-09-11T05:02:29.344Z,98825.06
2022-09-11T05:05:05.989Z,98824.72
2022-09-11T05:07:41.530Z,98789.84
2022-09-11T05:14:16.744Z,98794.19
2022-09-11T05:16:49.815Z,98802.69
2022-09-11T05:40:57.017Z,98831.47
2022-09-11T05:44:17.134Z,98801.81
2022-09-11T05:48:12.546Z,98832.22
2022-09-11T06:02:06.831Z,98802.97
2022-09-11T06:04:47.667Z,98813.13
2022-09-11T06:10:38.222Z,98837.63
2022-09-11T06:13:19.045Z,98841.75
2022-09-11T06:15:51.301Z,98811.25
2022-09-11T06:18:20.552Z,98814.50
2022-09-11T06:24:15.601Z,98830.69
2022-09-11T06:41:31.240Z,98847.50
2022-09-11T06:44:10.325Z,98816.06
2022-09-11T06:49:44.266Z,98817.47
2022-09-11T06:52:28.680Z,98829.44
2022-09-11T06:55:28.833Z,98818.97
2022-09-11T06:58:04.248Z,98855.50
2022-09-11T07:07:16.373Z,98825.81
2022-09-11T07:21:21.083Z,98821.16
2022-09-11T07:23:54.990Z,98825.16
2022-09-11T07:26:23.825Z,98817.19
2022-09-11T07:35:59.875Z,98810.03
2022-09-11T07:42:14.964Z,98812.88
2022-09-11T07:44:43.400Z,98825.28
2022-09-11T07:47:12.230Z,98827.56
2022-09-11T07:49:47.264Z,98815.50
2022-09-11T07:52:17.058Z,98819.72
2022-09-11T07:54:51.274Z,98838.06
2022-09-11T07:57:37.607Z,98825.72
2022-09-11T08:00:12.596Z,98824.84
2022-09-11T08:03:20.524Z,98837.50
2022-09-11T08:06:22.406Z,98854.88
2022-09-11T08:37:18.483Z,98854.34
2022-09-11T09:19:15.053Z,98874.28
2022-09-11T09:25:38.034Z,98863.00
2022-09-11T10:25:47.960Z,98813.66
2022-09-11T10:31:54.801Z,98829.84
2022-09-11T10:59:47.222Z,98817.41
2022-09-11T11:05:52.458Z,98817.19
2022-09-11T11:08:22.801Z,98813.47
2022-09-11T11:11:32.345Z,98814.25
2022-09-11T11:14:36.886Z,98786.66
2022-09-11T11:17:52.929Z,98807.09
2022-09-11T11:21:00.209Z,98800.75
2022-09-11T11:23:44.742Z,98765.31
2022-09-11T12:41:38.304Z,98764.47
2022-09-11T13:12:27.255Z,98770.47
2022-09-11T13:22:39.444Z,98740.56
2022-09-11T13:25:39.527Z,98773.59
2022-09-11T13:28:18.566Z,98758.53
2022-09-11T13:31:00.682Z,98769.19
2022-09-11T13:33:38.742Z,98752.34
2022-09-11T13:36:35.587Z,98759.81
2022-09-11T13:39:05.644Z,98772.25
2022-09-11T13:41:47.457Z,98762.72
2022-09-11T15:18:26.723Z,98812.59
2022-09-11T15:21:49.272Z,98815.19
2022-09-11T15:31:06.964Z,98813.44
2022-09-11T15:51:44.593Z,98843.28
2022-09-11T15:54:20.411Z,98848.69
2022-09-11T15:57:12.014Z,98878.63
2022-09-11T16:02:42.932Z,98850.25
2022-09-11T16:05:19.438Z,98874.94
2022-09-11T16:13:53.503Z,98841.56
2022-09-11T16:16:31.412Z,98849.53
2022-09-11T16:25:10.916Z,98868.59
2022-09-11T16:30:53.247Z,98850.34
2022-09-11T16:33:22.029Z,98849.66
2022-09-11T16:36:03.245Z,98869.88
2022-09-11T16:38:30.533Z,98833.53
2022-09-11T16:41:08.254Z,98865.09
2022-09-11T16:43:36.121Z,98853.28
2022-09-11T16:46:04.161Z,98849.81
2022-09-11T16:54:26.238Z,98853.34
2022-09-11T16:56:56.645Z,98857.59
2022-09-11T17:02:27.450Z,98851.13
2022-09-11T17:04:55.503Z,98865.41
2022-09-11T17:07:23.977Z,98835.06
2022-09-11T17:16:07.632Z,98831.44
2022-09-11T17:18:37.235Z,98854.56
2022-09-11T17:21:07.179Z,98853.72
2022-09-11T17:30:11.655Z,98870.97
2022-09-11T19:58:45.450Z,98980.81
2022-09-11T21:11:56.205Z,98970.97
2022-09-11T21:14:57.769Z,98988.84
2022-09-11T21:17:52.104Z,98970.16
2022-09-11T21:20:28.650Z,98980.44
2022-09-11T21:23:01.541Z,98956.59
2022-09-11T21:25:29.567Z,98969.41
2022-09-11T21:27:59.525Z,98966.81
2022-09-11T21:30:32.341Z,98969.41
2022-09-11T21:32:59.979Z,98965.28
2022-09-11T21:35:29.789Z,98972.94
2022-09-11T21:37:57.869Z,98973.94
2022-09-11T21:40:29.013Z,98973.09
2022-09-11T21:42:57.383Z,98982.56
2022-09-11T21:45:25.640Z,98976.88
2022-09-11T21:47:54.084Z,98992.16
2022-09-11T21:50:22.019Z,98993.28
2022-09-11T21:52:59.758Z,99016.16
2022-09-11T21:55:56.248Z,98986.41
2022-09-11T21:58:37.931Z,98987.56
2022-09-11T22:01:09.092Z,98990.13
2022-09-11T22:03:38.840Z,99004.56
2022-09-11T22:06:09.054Z,99001.25
2022-09-11T22:08:38.569Z,99013.84
2022-09-11T22:11:10.123Z,98995.19
2022-09-11T22:13:39.424Z,99006.22
2022-09-11T22:16:12.943Z,99022.56
2022-09-11T22:18:41.351Z,99005.50
2022-09-11T22:21:10.979Z,98987.81
2022-09-11T22:23:48.524Z,98997.13
2022-09-11T22:26:19.471Z,99008.41
2022-09-11T22:28:46.960Z,99004.06
2022-09-11T22:31:20.747Z,99010.03
2022-09-11T22:33:48.041Z,98983.56
2022-09-11T22:36:23.519Z,99000.72
2022-09-11T22:38:50.757Z,99002.50
2022-09-11T22:41:18.184Z,99010.03
2022-09-11T22:43:45.618Z,98987.94
2022-09-11T22:46:12.836Z,99013.41
2022-09-11T22:48:41.258Z,99000.84
2022-09-11T22:51:23.404Z,98998.16
2022-09-11T22:56:40.727Z,98993.97
2022-09-11T22:59:18.555Z,98990.72
2022-09-11T23:01:48.795Z,98985.56
2022-09-11T23:07:21.339Z,98989.13
2022-09-11T23:09:58.101Z,98995.25
2022-09-11T23:15:13.594Z,99020.59
2022-09-11T23:17:44.836Z,99005.34
2022-09-11T23:20:12.344Z,98991.03
2022-09-11T23:22:42.730Z,99004.66
2022-09-11T23:42:41.588Z,99032.47
2022-09-11T23:45:18.720Z,99005.16
2022-09-11T23:48:07.328Z,99021.16
2022-09-11T23:50:42.055Z,99001.72
2022-09-11T23:53:14.960Z,98994.81
2022-09-11T23:55:51.702Z,99002.56
2022-09-11T23:58:20.714Z,98982.06
